Cavite, Philippines
Current Conditions -  °F | °C
As of 12:00 PM on Thursday 18 Dec 2014 (Local Time) from RPLL Reporting Station
Scattered Clouds Scattered Clouds  
Wind Chill: 86°   Ceiling: Unl
Heat Index: 89°   Visibility: 6mi
Dew Point: 68°   Wind: 17mph
Humidity: 55%   Direction: 70°ENE
Pressure: 29.97"   Gusts: NA
Location:  14.47°N, 120.9°E
Report Text: RPLL 180400Z 07015KT 9999 FEW023CB FEW025 SCT300 30/20 Q1015 NOSIG RMK A2997 CB W
Loading
Personal Weather Stations






























Interactive Weather Map New forecast layout! Learn more

10-Day Weather Forecast

Advertisements
Track Severe Weather on mobile